sensor_id;sensor_type;location;lat;lon;timestamp;P1;durP1;ratioP1;P2;durP2;ratioP2
57730;SDS011;43570;47.476;19.040;2022-10-31T00:00:04;85.43;;;52.33;;
57730;SDS011;43570;47.476;19.040;2022-10-31T00:02:31;86.05;;;55.05;;
57730;SDS011;43570;47.476;19.040;2022-10-31T00:04:57;88.60;;;52.85;;
57730;SDS011;43570;47.476;19.040;2022-10-31T00:07:22;93.93;;;55.42;;
57730;SDS011;43570;47.476;19.040;2022-10-31T00:09:47;83.62;;;53.38;;
57730;SDS011;43570;47.476;19.040;2022-10-31T00:12:13;84.28;;;52.95;;
57730;SDS011;43570;47.476;19.040;2022-10-31T00:14:38;86.90;;;55.03;;
57730;SDS011;43570;47.476;19.040;2022-10-31T00:17:03;89.80;;;54.30;;
57730;SDS011;43570;47.476;19.040;2022-10-31T00:19:29;109.30;;;59.60;;
57730;SDS011;43570;47.476;19.040;2022-10-31T00:21:54;109.18;;;60.28;;
57730;SDS011;43570;47.476;19.040;2022-10-31T00:24:19;118.13;;;62.55;;
57730;SDS011;43570;47.476;19.040;2022-10-31T00:26:45;127.70;;;63.75;;
57730;SDS011;43570;47.476;19.040;2022-10-31T00:29:10;121.70;;;63.22;;
57730;SDS011;43570;47.476;19.040;2022-10-31T00:31:35;121.47;;;63.40;;
57730;SDS011;43570;47.476;19.040;2022-10-31T00:34:01;144.57;;;64.28;;
57730;SDS011;43570;47.476;19.040;2022-10-31T00:36:27;146.80;;;67.53;;
57730;SDS011;43570;47.476;19.040;2022-10-31T00:38:53;169.90;;;70.40;;
57730;SDS011;43570;47.476;19.040;2022-10-31T00:41:18;190.62;;;74.53;;
57730;SDS011;43570;47.476;19.040;2022-10-31T00:43:44;191.10;;;73.03;;
57730;SDS011;43570;47.476;19.040;2022-10-31T00:46:10;169.68;;;71.60;;
57730;SDS011;43570;47.476;19.040;2022-10-31T00:48:35;158.90;;;71.20;;
57730;SDS011;43570;47.476;19.040;2022-10-31T00:51:01;154.63;;;69.25;;
57730;SDS011;43570;47.476;19.040;2022-10-31T00:53:26;149.98;;;66.37;;
57730;SDS011;43570;47.476;19.040;2022-10-31T00:55:52;128.23;;;62.33;;
57730;SDS011;43570;47.476;19.040;2022-10-31T00:58:17;134.95;;;63.78;;
57730;SDS011;43570;47.476;19.040;2022-10-31T01:00:42;144.25;;;64.72;;
57730;SDS011;43570;47.476;19.040;2022-10-31T01:03:08;126.87;;;60.65;;
57730;SDS011;43570;47.476;19.040;2022-10-31T01:05:33;116.32;;;58.58;;
57730;SDS011;43570;47.476;19.040;2022-10-31T01:07:59;126.20;;;57.75;;
57730;SDS011;43570;47.476;19.040;2022-10-31T01:10:24;120.47;;;57.83;;
57730;SDS011;43570;47.476;19.040;2022-10-31T01:12:50;124.45;;;57.55;;
57730;SDS011;43570;47.476;19.040;2022-10-31T01:15:17;122.68;;;56.35;;
57730;SDS011;43570;47.476;19.040;2022-10-31T01:17:44;134.33;;;59.87;;
57730;SDS011;43570;47.476;19.040;2022-10-31T01:20:09;135.12;;;60.30;;
57730;SDS011;43570;47.476;19.040;2022-10-31T01:22:36;117.45;;;56.03;;
57730;SDS011;43570;47.476;19.040;2022-10-31T01:25:02;119.37;;;59.33;;
57730;SDS011;43570;47.476;19.040;2022-10-31T01:27:27;113.22;;;55.63;;
57730;SDS011;43570;47.476;19.040;2022-10-31T01:29:53;116.78;;;55.08;;
57730;SDS011;43570;47.476;19.040;2022-10-31T01:32:18;104.57;;;52.83;;
57730;SDS011;43570;47.476;19.040;2022-10-31T01:34:44;111.60;;;53.67;;
57730;SDS011;43570;47.476;19.040;2022-10-31T01:37:09;86.57;;;47.05;;
57730;SDS011;43570;47.476;19.040;2022-10-31T01:39:34;94.28;;;49.25;;
57730;SDS011;43570;47.476;19.040;2022-10-31T01:42:00;88.93;;;46.08;;
57730;SDS011;43570;47.476;19.040;2022-10-31T01:49:42;74.57;;;41.90;;
57730;SDS011;43570;47.476;19.040;2022-10-31T01:52:32;74.87;;;43.63;;
57730;SDS011;43570;47.476;19.040;2022-10-31T01:57:31;69.57;;;39.92;;
57730;SDS011;43570;47.476;19.040;2022-10-31T01:59:59;56.88;;;37.28;;
57730;SDS011;43570;47.476;19.040;2022-10-31T02:02:27;54.72;;;35.65;;
57730;SDS011;43570;47.476;19.040;2022-10-31T02:04:55;50.33;;;33.85;;
57730;SDS011;43570;47.476;19.040;2022-10-31T02:07:29;53.38;;;36.65;;
57730;SDS011;43570;47.476;19.040;2022-10-31T02:09:58;54.53;;;35.10;;
57730;SDS011;43570;47.476;19.040;2022-10-31T02:12:24;48.13;;;33.53;;
57730;SDS011;43570;47.476;19.040;2022-10-31T02:14:49;44.85;;;33.20;;
57730;SDS011;43570;47.476;19.040;2022-10-31T02:17:15;49.22;;;33.25;;
57730;SDS011;43570;47.476;19.040;2022-10-31T02:19:51;49.85;;;34.22;;
57730;SDS011;43570;47.476;19.040;2022-10-31T02:22:26;47.60;;;32.70;;
57730;SDS011;43570;47.476;19.040;2022-10-31T02:28:12;44.25;;;29.25;;
57730;SDS011;43570;47.476;19.040;2022-10-31T02:31:12;37.20;;;28.12;;
57730;SDS011;43570;47.476;19.040;2022-10-31T02:33:57;42.45;;;30.05;;
57730;SDS011;43570;47.476;19.040;2022-10-31T02:44:36;44.20;;;29.77;;
57730;SDS011;43570;47.476;19.040;2022-10-31T02:47:09;47.53;;;31.20;;
57730;SDS011;43570;47.476;19.040;2022-10-31T02:49:44;53.97;;;33.00;;
57730;SDS011;43570;47.476;19.040;2022-10-31T02:52:20;58.58;;;35.05;;
57730;SDS011;43570;47.476;19.040;2022-10-31T02:54:46;56.13;;;35.17;;
57730;SDS011;43570;47.476;19.040;2022-10-31T02:57:12;58.42;;;34.22;;
57730;SDS011;43570;47.476;19.040;2022-10-31T02:59:39;60.88;;;35.80;;
57730;SDS011;43570;47.476;19.040;2022-10-31T03:10:13;52.50;;;33.95;;
57730;SDS011;43570;47.476;19.040;2022-10-31T03:13:20;49.90;;;32.63;;
57730;SDS011;43570;47.476;19.040;2022-10-31T03:15:50;52.30;;;33.15;;
57730;SDS011;43570;47.476;19.040;2022-10-31T03:20:54;50.85;;;32.17;;
57730;SDS011;43570;47.476;19.040;2022-10-31T03:23:30;49.50;;;33.33;;
57730;SDS011;43570;47.476;19.040;2022-10-31T03:25:55;51.92;;;32.80;;
57730;SDS011;43570;47.476;19.040;2022-10-31T03:28:26;44.15;;;30.10;;
57730;SDS011;43570;47.476;19.040;2022-10-31T03:30:54;43.20;;;30.62;;
57730;SDS011;43570;47.476;19.040;2022-10-31T03:33:22;44.58;;;29.50;;
57730;SDS011;43570;47.476;19.040;2022-10-31T03:35:50;45.97;;;29.87;;
57730;SDS011;43570;47.476;19.040;2022-10-31T03:38:16;45.67;;;29.67;;
57730;SDS011;43570;47.476;19.040;2022-10-31T03:40:43;46.22;;;30.30;;
57730;SDS011;43570;47.476;19.040;2022-10-31T03:43:13;44.25;;;29.12;;
57730;SDS011;43570;47.476;19.040;2022-10-31T03:45:43;40.70;;;28.17;;
57730;SDS011;43570;47.476;19.040;2022-10-31T03:48:10;38.28;;;26.33;;
57730;SDS011;43570;47.476;19.040;2022-10-31T03:53:20;34.22;;;25.52;;
57730;SDS011;43570;47.476;19.040;2022-10-31T03:55:50;32.83;;;25.02;;
57730;SDS011;43570;47.476;19.040;2022-10-31T03:58:22;36.93;;;24.80;;
57730;SDS011;43570;47.476;19.040;2022-10-31T04:00:58;34.00;;;24.40;;
57730;SDS011;43570;47.476;19.040;2022-10-31T04:03:26;33.83;;;25.65;;
57730;SDS011;43570;47.476;19.040;2022-10-31T04:05:55;38.50;;;27.07;;
57730;SDS011;43570;47.476;19.040;2022-10-31T04:08:23;39.70;;;27.45;;
57730;SDS011;43570;47.476;19.040;2022-10-31T04:10:51;41.83;;;28.62;;
57730;SDS011;43570;47.476;19.040;2022-10-31T04:13:19;46.22;;;28.77;;
57730;SDS011;43570;47.476;19.040;2022-10-31T04:15:47;41.85;;;28.30;;
57730;SDS011;43570;47.476;19.040;2022-10-31T04:18:14;46.33;;;29.37;;
57730;SDS011;43570;47.476;19.040;2022-10-31T04:20:40;42.42;;;30.25;;
57730;SDS011;43570;47.476;19.040;2022-10-31T04:23:20;43.05;;;29.83;;
57730;SDS011;43570;47.476;19.040;2022-10-31T04:25:47;45.72;;;30.77;;
57730;SDS011;43570;47.476;19.040;2022-10-31T04:28:13;43.05;;;29.65;;
57730;SDS011;43570;47.476;19.040;2022-10-31T04:30:38;44.25;;;29.27;;
57730;SDS011;43570;47.476;19.040;2022-10-31T04:33:03;45.97;;;30.02;;
57730;SDS011;43570;47.476;19.040;2022-10-31T04:35:29;45.35;;;30.77;;
57730;SDS011;43570;47.476;19.040;2022-10-31T04:37:54;47.22;;;30.75;;
57730;SDS011;43570;47.476;19.040;2022-10-31T04:40:20;44.00;;;28.12;;
57730;SDS011;43570;47.476;19.040;2022-10-31T04:42:45;47.88;;;30.62;;
57730;SDS011;43570;47.476;19.040;2022-10-31T04:45:10;50.17;;;32.45;;
57730;SDS011;43570;47.476;19.040;2022-10-31T04:47:36;51.15;;;31.55;;
57730;SDS011;43570;47.476;19.040;2022-10-31T04:50:01;48.50;;;32.20;;
57730;SDS011;43570;47.476;19.040;2022-10-31T04:52:27;56.72;;;33.20;;
57730;SDS011;43570;47.476;19.040;2022-10-31T04:54:52;51.47;;;33.58;;
57730;SDS011;43570;47.476;19.040;2022-10-31T04:57:18;50.38;;;33.35;;
57730;SDS011;43570;47.476;19.040;2022-10-31T04:59:43;52.72;;;33.25;;
57730;SDS011;43570;47.476;19.040;2022-10-31T05:02:08;52.10;;;32.63;;
57730;SDS011;43570;47.476;19.040;2022-10-31T05:04:34;51.35;;;32.17;;
57730;SDS011;43570;47.476;19.040;2022-10-31T05:06:59;51.45;;;30.62;;
57730;SDS011;43570;47.476;19.040;2022-10-31T05:09:25;51.28;;;32.03;;
57730;SDS011;43570;47.476;19.040;2022-10-31T05:11:50;55.25;;;33.05;;
57730;SDS011;43570;47.476;19.040;2022-10-31T05:14:15;60.90;;;33.67;;
57730;SDS011;43570;47.476;19.040;2022-10-31T05:16:41;62.80;;;33.45;;
57730;SDS011;43570;47.476;19.040;2022-10-31T05:19:06;57.55;;;33.58;;
57730;SDS011;43570;47.476;19.040;2022-10-31T05:21:31;61.10;;;34.00;;
57730;SDS011;43570;47.476;19.040;2022-10-31T05:23:57;61.83;;;34.35;;
57730;SDS011;43570;47.476;19.040;2022-10-31T05:26:22;66.93;;;37.28;;
57730;SDS011;43570;47.476;19.040;2022-10-31T05:28:48;61.67;;;34.13;;
57730;SDS011;43570;47.476;19.040;2022-10-31T05:31:13;59.88;;;33.40;;
57730;SDS011;43570;47.476;19.040;2022-10-31T05:33:38;61.83;;;33.55;;
57730;SDS011;43570;47.476;19.040;2022-10-31T05:36:04;59.83;;;34.35;;
57730;SDS011;43570;47.476;19.040;2022-10-31T05:38:29;57.72;;;33.35;;
57730;SDS011;43570;47.476;19.040;2022-10-31T05:40:55;66.40;;;34.47;;
57730;SDS011;43570;47.476;19.040;2022-10-31T05:43:25;61.67;;;33.63;;
57730;SDS011;43570;47.476;19.040;2022-10-31T05:45:53;49.95;;;31.23;;
57730;SDS011;43570;47.476;19.040;2022-10-31T05:48:19;58.38;;;33.47;;
57730;SDS011;43570;47.476;19.040;2022-10-31T05:50:46;61.33;;;33.63;;
57730;SDS011;43570;47.476;19.040;2022-10-31T05:53:12;54.28;;;32.55;;
57730;SDS011;43570;47.476;19.040;2022-10-31T05:55:38;58.22;;;34.45;;
57730;SDS011;43570;47.476;19.040;2022-10-31T05:58:05;51.88;;;32.92;;
57730;SDS011;43570;47.476;19.040;2022-10-31T06:00:31;54.45;;;31.87;;
57730;SDS011;43570;47.476;19.040;2022-10-31T06:03:00;63.60;;;34.45;;
57730;SDS011;43570;47.476;19.040;2022-10-31T06:05:29;53.25;;;32.10;;
57730;SDS011;43570;47.476;19.040;2022-10-31T06:07:55;57.67;;;32.40;;
57730;SDS011;43570;47.476;19.040;2022-10-31T06:10:21;55.95;;;33.25;;
57730;SDS011;43570;47.476;19.040;2022-10-31T06:12:47;54.65;;;32.03;;
57730;SDS011;43570;47.476;19.040;2022-10-31T06:15:13;48.75;;;29.00;;
57730;SDS011;43570;47.476;19.040;2022-10-31T06:17:39;48.38;;;28.08;;
57730;SDS011;43570;47.476;19.040;2022-10-31T06:20:05;51.30;;;29.67;;
57730;SDS011;43570;47.476;19.040;2022-10-31T06:22:32;50.35;;;30.23;;
57730;SDS011;43570;47.476;19.040;2022-10-31T06:24:57;57.40;;;31.62;;
57730;SDS011;43570;47.476;19.040;2022-10-31T06:27:23;51.55;;;30.67;;
57730;SDS011;43570;47.476;19.040;2022-10-31T06:29:49;54.55;;;32.47;;
57730;SDS011;43570;47.476;19.040;2022-10-31T06:32:14;58.05;;;31.67;;
57730;SDS011;43570;47.476;19.040;2022-10-31T06:34:40;51.95;;;30.30;;
57730;SDS011;43570;47.476;19.040;2022-10-31T06:37:06;53.90;;;31.17;;
57730;SDS011;43570;47.476;19.040;2022-10-31T06:39:32;55.33;;;31.50;;
57730;SDS011;43570;47.476;19.040;2022-10-31T06:41:58;48.55;;;30.65;;
57730;SDS011;43570;47.476;19.040;2022-10-31T06:44:23;49.88;;;30.10;;
57730;SDS011;43570;47.476;19.040;2022-10-31T06:46:50;50.15;;;29.95;;
57730;SDS011;43570;47.476;19.040;2022-10-31T06:49:15;48.75;;;31.33;;
57730;SDS011;43570;47.476;19.040;2022-10-31T06:51:41;46.17;;;29.45;;
57730;SDS011;43570;47.476;19.040;2022-10-31T06:54:06;42.00;;;27.10;;
57730;SDS011;43570;47.476;19.040;2022-10-31T06:56:32;41.40;;;27.35;;
57730;SDS011;43570;47.476;19.040;2022-10-31T06:58:57;41.90;;;27.08;;
57730;SDS011;43570;47.476;19.040;2022-10-31T07:01:23;43.45;;;27.60;;
57730;SDS011;43570;47.476;19.040;2022-10-31T07:03:48;43.92;;;27.70;;
57730;SDS011;43570;47.476;19.040;2022-10-31T07:06:13;39.10;;;25.50;;
57730;SDS011;43570;47.476;19.040;2022-10-31T07:08:39;41.03;;;27.17;;
57730;SDS011;43570;47.476;19.040;2022-10-31T07:11:04;39.50;;;25.73;;
57730;SDS011;43570;47.476;19.040;2022-10-31T07:13:30;40.03;;;26.10;;
57730;SDS011;43570;47.476;19.040;2022-10-31T07:15:59;44.00;;;27.13;;
57730;SDS011;43570;47.476;19.040;2022-10-31T07:18:26;41.92;;;27.37;;
57730;SDS011;43570;47.476;19.040;2022-10-31T07:20:52;43.30;;;25.92;;
57730;SDS011;43570;47.476;19.040;2022-10-31T07:23:18;42.13;;;27.33;;
57730;SDS011;43570;47.476;19.040;2022-10-31T07:25:43;42.97;;;27.33;;
57730;SDS011;43570;47.476;19.040;2022-10-31T07:28:09;43.60;;;26.50;;
57730;SDS011;43570;47.476;19.040;2022-10-31T07:30:35;45.45;;;28.12;;
57730;SDS011;43570;47.476;19.040;2022-10-31T07:33:01;44.47;;;28.58;;
57730;SDS011;43570;47.476;19.040;2022-10-31T07:35:27;42.72;;;28.52;;
57730;SDS011;43570;47.476;19.040;2022-10-31T07:37:53;43.87;;;28.77;;
57730;SDS011;43570;47.476;19.040;2022-10-31T07:40:19;49.00;;;29.85;;
57730;SDS011;43570;47.476;19.040;2022-10-31T07:42:46;48.13;;;29.85;;
57730;SDS011;43570;47.476;19.040;2022-10-31T07:45:13;45.78;;;28.90;;
57730;SDS011;43570;47.476;19.040;2022-10-31T07:47:44;48.67;;;29.60;;
57730;SDS011;43570;47.476;19.040;2022-10-31T07:50:15;50.83;;;30.55;;
57730;SDS011;43570;47.476;19.040;2022-10-31T07:52:42;46.35;;;29.65;;
57730;SDS011;43570;47.476;19.040;2022-10-31T07:55:07;49.00;;;29.95;;
57730;SDS011;43570;47.476;19.040;2022-10-31T07:57:33;49.22;;;30.70;;
57730;SDS011;43570;47.476;19.040;2022-10-31T07:59:59;48.35;;;30.73;;
57730;SDS011;43570;47.476;19.040;2022-10-31T08:02:24;56.63;;;31.95;;
57730;SDS011;43570;47.476;19.040;2022-10-31T08:04:50;58.70;;;33.97;;
57730;SDS011;43570;47.476;19.040;2022-10-31T08:07:16;53.60;;;31.80;;
57730;SDS011;43570;47.476;19.040;2022-10-31T08:09:41;59.25;;;34.42;;
57730;SDS011;43570;47.476;19.040;2022-10-31T08:12:07;62.58;;;34.65;;
57730;SDS011;43570;47.476;19.040;2022-10-31T08:14:32;58.97;;;34.33;;
57730;SDS011;43570;47.476;19.040;2022-10-31T08:16:58;57.45;;;33.05;;
57730;SDS011;43570;47.476;19.040;2022-10-31T08:19:23;58.95;;;33.72;;
57730;SDS011;43570;47.476;19.040;2022-10-31T08:21:52;56.60;;;32.85;;
57730;SDS011;43570;47.476;19.040;2022-10-31T08:24:19;62.30;;;34.58;;
57730;SDS011;43570;47.476;19.040;2022-10-31T08:26:45;59.83;;;33.72;;
57730;SDS011;43570;47.476;19.040;2022-10-31T08:29:11;57.97;;;33.80;;
57730;SDS011;43570;47.476;19.040;2022-10-31T08:31:36;60.85;;;33.60;;
57730;SDS011;43570;47.476;19.040;2022-10-31T08:34:01;62.30;;;35.22;;
57730;SDS011;43570;47.476;19.040;2022-10-31T08:36:27;61.75;;;35.58;;
57730;SDS011;43570;47.476;19.040;2022-10-31T08:38:53;63.50;;;35.97;;
57730;SDS011;43570;47.476;19.040;2022-10-31T08:41:18;68.60;;;35.80;;
57730;SDS011;43570;47.476;19.040;2022-10-31T08:43:44;60.97;;;33.65;;
57730;SDS011;43570;47.476;19.040;2022-10-31T08:46:10;60.30;;;34.47;;
57730;SDS011;43570;47.476;19.040;2022-10-31T08:48:35;60.80;;;33.50;;
57730;SDS011;43570;47.476;19.040;2022-10-31T08:51:01;59.83;;;34.45;;
57730;SDS011;43570;47.476;19.040;2022-10-31T08:53:26;61.15;;;34.17;;
57730;SDS011;43570;47.476;19.040;2022-10-31T08:55:53;56.33;;;32.30;;
57730;SDS011;43570;47.476;19.040;2022-10-31T08:58:20;57.40;;;32.67;;
57730;SDS011;43570;47.476;19.040;2022-10-31T09:00:47;54.38;;;32.17;;
57730;SDS011;43570;47.476;19.040;2022-10-31T09:03:19;54.00;;;32.20;;
57730;SDS011;43570;47.476;19.040;2022-10-31T09:05:46;52.20;;;31.00;;
57730;SDS011;43570;47.476;19.040;2022-10-31T09:08:12;52.17;;;31.23;;
57730;SDS011;43570;47.476;19.040;2022-10-31T09:10:38;51.58;;;30.02;;
57730;SDS011;43570;47.476;19.040;2022-10-31T09:13:05;53.10;;;29.87;;
57730;SDS011;43570;47.476;19.040;2022-10-31T09:15:36;50.28;;;29.85;;
57730;SDS011;43570;47.476;19.040;2022-10-31T09:18:03;47.72;;;29.80;;
57730;SDS011;43570;47.476;19.040;2022-10-31T09:20:32;40.40;;;27.37;;
57730;SDS011;43570;47.476;19.040;2022-10-31T09:23:02;46.25;;;27.75;;
57730;SDS011;43570;47.476;19.040;2022-10-31T09:25:32;43.95;;;29.17;;
57730;SDS011;43570;47.476;19.040;2022-10-31T09:27:58;46.17;;;29.63;;
57730;SDS011;43570;47.476;19.040;2022-10-31T09:30:24;51.22;;;30.67;;
57730;SDS011;43570;47.476;19.040;2022-10-31T09:32:57;46.75;;;29.67;;
57730;SDS011;43570;47.476;19.040;2022-10-31T09:35:24;43.97;;;27.65;;
57730;SDS011;43570;47.476;19.040;2022-10-31T09:37:56;44.88;;;28.33;;
57730;SDS011;43570;47.476;19.040;2022-10-31T09:45:50;40.65;;;25.98;;
57730;SDS011;43570;47.476;19.040;2022-10-31T09:51:01;39.03;;;25.42;;
57730;SDS011;43570;47.476;19.040;2022-10-31T09:56:16;40.15;;;25.30;;
57730;SDS011;43570;47.476;19.040;2022-10-31T09:58:49;43.33;;;27.23;;
57730;SDS011;43570;47.476;19.040;2022-10-31T10:06:53;43.30;;;27.77;;
57730;SDS011;43570;47.476;19.040;2022-10-31T10:09:24;46.45;;;27.98;;
57730;SDS011;43570;47.476;19.040;2022-10-31T10:22:12;43.45;;;28.15;;
57730;SDS011;43570;47.476;19.040;2022-10-31T10:30:50;41.97;;;27.52;;
57730;SDS011;43570;47.476;19.040;2022-10-31T10:33:25;39.58;;;26.25;;
57730;SDS011;43570;47.476;19.040;2022-10-31T10:35:55;46.20;;;28.40;;
57730;SDS011;43570;47.476;19.040;2022-10-31T10:38:27;35.45;;;25.62;;
57730;SDS011;43570;47.476;19.040;2022-10-31T10:40:57;38.95;;;26.35;;
57730;SDS011;43570;47.476;19.040;2022-10-31T10:43:28;37.47;;;26.12;;
57730;SDS011;43570;47.476;19.040;2022-10-31T10:51:37;32.95;;;23.20;;
57730;SDS011;43570;47.476;19.040;2022-10-31T10:59:22;33.95;;;23.00;;
57730;SDS011;43570;47.476;19.040;2022-10-31T11:01:50;33.03;;;23.92;;
57730;SDS011;43570;47.476;19.040;2022-10-31T11:04:30;29.20;;;23.08;;
57730;SDS011;43570;47.476;19.040;2022-10-31T11:07:04;32.10;;;23.70;;
57730;SDS011;43570;47.476;19.040;2022-10-31T11:09:30;28.98;;;21.87;;
57730;SDS011;43570;47.476;19.040;2022-10-31T11:11:55;30.17;;;23.90;;
57730;SDS011;43570;47.476;19.040;2022-10-31T11:14:21;28.67;;;22.45;;
57730;SDS011;43570;47.476;19.040;2022-10-31T11:16:48;29.40;;;21.87;;
57730;SDS011;43570;47.476;19.040;2022-10-31T11:21:47;29.98;;;22.30;;
57730;SDS011;43570;47.476;19.040;2022-10-31T11:24:23;27.15;;;20.85;;
57730;SDS011;43570;47.476;19.040;2022-10-31T11:27:02;27.65;;;20.67;;
57730;SDS011;43570;47.476;19.040;2022-10-31T11:29:32;27.98;;;21.27;;
57730;SDS011;43570;47.476;19.040;2022-10-31T11:31:58;28.10;;;21.55;;
57730;SDS011;43570;47.476;19.040;2022-10-31T11:37:21;29.50;;;23.48;;
57730;SDS011;43570;47.476;19.040;2022-10-31T11:39:51;29.40;;;22.55;;
57730;SDS011;43570;47.476;19.040;2022-10-31T11:42:22;26.80;;;22.25;;
57730;SDS011;43570;47.476;19.040;2022-10-31T11:44:49;29.30;;;22.42;;
57730;SDS011;43570;47.476;19.040;2022-10-31T11:47:16;27.87;;;21.75;;
57730;SDS011;43570;47.476;19.040;2022-10-31T11:49:45;28.70;;;21.83;;
57730;SDS011;43570;47.476;19.040;2022-10-31T11:52:19;31.67;;;24.25;;
57730;SDS011;43570;47.476;19.040;2022-10-31T11:54:53;31.85;;;22.58;;
57730;SDS011;43570;47.476;19.040;2022-10-31T11:57:21;31.15;;;22.65;;
57730;SDS011;43570;47.476;19.040;2022-10-31T11:59:55;30.20;;;22.37;;
57730;SDS011;43570;47.476;19.040;2022-10-31T12:02:22;27.70;;;22.65;;
57730;SDS011;43570;47.476;19.040;2022-10-31T12:07:43;26.48;;;20.73;;
57730;SDS011;43570;47.476;19.040;2022-10-31T12:10:11;27.83;;;20.88;;
57730;SDS011;43570;47.476;19.040;2022-10-31T12:15:18;26.60;;;20.83;;
57730;SDS011;43570;47.476;19.040;2022-10-31T12:20:44;24.70;;;20.23;;
57730;SDS011;43570;47.476;19.040;2022-10-31T12:24:06;25.65;;;21.27;;
57730;SDS011;43570;47.476;19.040;2022-10-31T12:29:13;27.50;;;20.85;;
57730;SDS011;43570;47.476;19.040;2022-10-31T12:43:08;27.50;;;22.73;;
57730;SDS011;43570;47.476;19.040;2022-10-31T12:45:39;27.35;;;21.20;;
57730;SDS011;43570;47.476;19.040;2022-10-31T13:00:50;26.85;;;21.98;;
57730;SDS011;43570;47.476;19.040;2022-10-31T13:03:27;26.65;;;21.42;;
57730;SDS011;43570;47.476;19.040;2022-10-31T13:06:09;29.20;;;22.90;;
57730;SDS011;43570;47.476;19.040;2022-10-31T13:08:40;29.02;;;22.48;;
57730;SDS011;43570;47.476;19.040;2022-10-31T13:11:10;27.40;;;22.48;;
57730;SDS011;43570;47.476;19.040;2022-10-31T13:16:31;26.60;;;21.25;;
57730;SDS011;43570;47.476;19.040;2022-10-31T13:19:10;27.77;;;21.83;;
57730;SDS011;43570;47.476;19.040;2022-10-31T13:21:50;27.45;;;21.55;;
57730;SDS011;43570;47.476;19.040;2022-10-31T13:24:23;27.02;;;21.17;;
57730;SDS011;43570;47.476;19.040;2022-10-31T13:27:17;28.00;;;21.73;;
57730;SDS011;43570;47.476;19.040;2022-10-31T13:32:26;27.67;;;21.08;;
57730;SDS011;43570;47.476;19.040;2022-10-31T13:34:55;28.42;;;21.08;;
57730;SDS011;43570;47.476;19.040;2022-10-31T13:40:13;26.27;;;21.75;;
57730;SDS011;43570;47.476;19.040;2022-10-31T13:42:57;24.92;;;21.40;;
57730;SDS011;43570;47.476;19.040;2022-10-31T13:45:29;25.25;;;20.65;;
57730;SDS011;43570;47.476;19.040;2022-10-31T13:47:55;25.95;;;20.70;;
57730;SDS011;43570;47.476;19.040;2022-10-31T13:50:22;26.65;;;20.50;;
57730;SDS011;43570;47.476;19.040;2022-10-31T13:52:48;26.70;;;20.05;;
57730;SDS011;43570;47.476;19.040;2022-10-31T13:58:22;29.48;;;21.12;;
57730;SDS011;43570;47.476;19.040;2022-10-31T14:01:05;24.58;;;20.67;;
57730;SDS011;43570;47.476;19.040;2022-10-31T14:03:39;26.17;;;20.50;;
57730;SDS011;43570;47.476;19.040;2022-10-31T14:06:05;26.75;;;20.15;;
57730;SDS011;43570;47.476;19.040;2022-10-31T14:08:34;23.73;;;20.08;;
57730;SDS011;43570;47.476;19.040;2022-10-31T14:11:00;24.48;;;19.87;;
57730;SDS011;43570;47.476;19.040;2022-10-31T14:15:57;28.02;;;22.75;;
57730;SDS011;43570;47.476;19.040;2022-10-31T14:18:32;27.92;;;22.05;;
57730;SDS011;43570;47.476;19.040;2022-10-31T14:20:59;27.02;;;22.65;;
57730;SDS011;43570;47.476;19.040;2022-10-31T14:28:44;27.20;;;20.77;;
57730;SDS011;43570;47.476;19.040;2022-10-31T14:31:30;23.50;;;19.73;;
57730;SDS011;43570;47.476;19.040;2022-10-31T14:34:20;27.45;;;21.48;;
57730;SDS011;43570;47.476;19.040;2022-10-31T14:36:58;27.33;;;22.05;;
57730;SDS011;43570;47.476;19.040;2022-10-31T14:50:48;28.65;;;22.65;;
57730;SDS011;43570;47.476;19.040;2022-10-31T14:53:20;29.92;;;22.15;;
57730;SDS011;43570;47.476;19.040;2022-10-31T14:55:48;24.08;;;19.70;;
57730;SDS011;43570;47.476;19.040;2022-10-31T14:58:17;27.55;;;22.35;;
57730;SDS011;43570;47.476;19.040;2022-10-31T15:00:45;31.17;;;24.45;;
57730;SDS011;43570;47.476;19.040;2022-10-31T15:03:16;29.23;;;22.58;;
57730;SDS011;43570;47.476;19.040;2022-10-31T15:05:47;29.42;;;24.00;;
57730;SDS011;43570;47.476;19.040;2022-10-31T15:08:26;31.15;;;23.58;;
57730;SDS011;43570;47.476;19.040;2022-10-31T15:10:52;29.23;;;23.05;;
57730;SDS011;43570;47.476;19.040;2022-10-31T15:13:18;27.95;;;23.62;;
57730;SDS011;43570;47.476;19.040;2022-10-31T15:15:46;31.37;;;23.45;;
57730;SDS011;43570;47.476;19.040;2022-10-31T15:18:20;27.77;;;23.20;;
57730;SDS011;43570;47.476;19.040;2022-10-31T15:20:47;30.55;;;24.40;;
57730;SDS011;43570;47.476;19.040;2022-10-31T15:23:17;30.80;;;23.60;;
57730;SDS011;43570;47.476;19.040;2022-10-31T15:25:47;36.53;;;26.42;;
57730;SDS011;43570;47.476;19.040;2022-10-31T15:28:16;44.47;;;33.80;;
57730;SDS011;43570;47.476;19.040;2022-10-31T15:30:50;34.65;;;26.33;;
57730;SDS011;43570;47.476;19.040;2022-10-31T15:33:18;34.38;;;27.73;;
57730;SDS011;43570;47.476;19.040;2022-10-31T15:35:53;38.97;;;29.20;;
57730;SDS011;43570;47.476;19.040;2022-10-31T15:38:26;35.10;;;27.17;;
57730;SDS011;43570;47.476;19.040;2022-10-31T15:40:57;35.05;;;25.92;;
57730;SDS011;43570;47.476;19.040;2022-10-31T15:43:25;34.83;;;26.87;;
57730;SDS011;43570;47.476;19.040;2022-10-31T15:45:52;36.88;;;26.90;;
57730;SDS011;43570;47.476;19.040;2022-10-31T15:48:20;33.50;;;26.17;;
57730;SDS011;43570;47.476;19.040;2022-10-31T15:50:48;40.33;;;28.62;;
57730;SDS011;43570;47.476;19.040;2022-10-31T15:53:24;34.38;;;26.90;;
57730;SDS011;43570;47.476;19.040;2022-10-31T15:55:53;34.38;;;26.35;;
57730;SDS011;43570;47.476;19.040;2022-10-31T15:58:20;35.08;;;28.00;;
57730;SDS011;43570;47.476;19.040;2022-10-31T16:00:56;37.28;;;27.13;;
57730;SDS011;43570;47.476;19.040;2022-10-31T16:03:24;37.72;;;26.98;;
57730;SDS011;43570;47.476;19.040;2022-10-31T16:05:55;33.08;;;27.15;;
57730;SDS011;43570;47.476;19.040;2022-10-31T16:08:31;37.78;;;29.23;;
57730;SDS011;43570;47.476;19.040;2022-10-31T16:13:36;36.25;;;26.90;;
57730;SDS011;43570;47.476;19.040;2022-10-31T16:16:13;36.28;;;27.87;;
57730;SDS011;43570;47.476;19.040;2022-10-31T16:18:40;33.33;;;27.13;;
57730;SDS011;43570;47.476;19.040;2022-10-31T16:21:06;36.88;;;28.35;;
57730;SDS011;43570;47.476;19.040;2022-10-31T16:23:33;36.97;;;28.25;;
57730;SDS011;43570;47.476;19.040;2022-10-31T16:25:58;38.17;;;28.70;;
57730;SDS011;43570;47.476;19.040;2022-10-31T16:28:24;33.17;;;27.27;;
57730;SDS011;43570;47.476;19.040;2022-10-31T16:30:52;38.03;;;27.95;;
57730;SDS011;43570;47.476;19.040;2022-10-31T16:33:32;37.38;;;26.83;;
57730;SDS011;43570;47.476;19.040;2022-10-31T16:36:01;38.17;;;27.80;;
57730;SDS011;43570;47.476;19.040;2022-10-31T16:38:56;36.78;;;26.52;;
57730;SDS011;43570;47.476;19.040;2022-10-31T16:41:24;38.50;;;28.27;;
57730;SDS011;43570;47.476;19.040;2022-10-31T16:43:50;37.17;;;27.58;;
57730;SDS011;43570;47.476;19.040;2022-10-31T16:46:18;39.53;;;29.25;;